CYLW/YLW METAR and TAF weather

Enter ICAO airport designator
Station Type Date Time Source
CYLW METAR 2020/05/29 20:00 UTC NOAA

CYLW 292000Z AUTO VRB03KT 9SM CLR 23/09 A2994 RMK SLP140 DENSITY ALT 2500FT


Station Type Date Time Source
CYLW Decoded METAR 2020/05/29 20:00 UTC NOAA

Kelowna Airport, Canada (CYLW) 49-58N 119-23W 430M
May 29, 2020 - 04:00 PM EDT / 2020.05.29 2000 UTC
Wind: Variable at 3 MPH (3 KT):0
Visibility: 9 mile(s):0
Sky conditions: clear
Temperature: 73 F (23 C)
Dew Point: 48 F (9 C)
Relative Humidity: 40%
Pressure (altimeter): 29.94 in. Hg (1013 hPa)
ob: CYLW 292000Z AUTO VRB03KT 9SM CLR 23/09 A2994 RMK SLP140 DENSITY ALT 2500FT
cycle: 20

Station Type Date Time Source
CYLW TAF 2020/05/29 19:39 UTC NOAA

TAF CYLW 291838Z 2919/3007 VRB03KT P6SM FEW120 SCT150
TEMPO 2919/3002 BKN120
BECMG 2920/2922 33012KT
FM300600 02006KT P6SM FEW120
RMK FCST BASED ON AUTO OBS. NXT FCST BY 300100Z

Example: see airport list